TGL84 LFMT-LFLL
Flight info
| Callsign | TGL84 |
|---|---|
| Flight time | 0h 27m |
| Altitude | 18000 |
| Route | NG DCT MOLEN DCT MTL |
| Aircraft | A319/M-SDE3FGHIRWY/LB1 |
Departure
| Time | 2026-04-29 19:55 |
|---|---|
| Airport | Montpellier-Méditerranée Airport (LFMT) |
Arrival
| Time | 2026-04-29 20:23 |
|---|---|
| Airport | Lyon Saint-Exupéry Airport (LFLL) |
| Time | Latitude | Longitude | Altitude | Speed | Heading |
|---|---|---|---|---|---|
| 2026-04-29 19:29 | 43.57975 | 3.95918 | 15 ft | 0 kts | 188° |
| 2026-04-29 19:30 | 43.57974 | 3.95918 | 15 ft | 0 kts | 188° |
| 2026-04-29 19:43 | 43.57990 | 3.95922 | 15 ft | 4 kts | 192° |
| 2026-04-29 19:43 | 43.58016 | 3.95932 | 17 ft | 4 kts | 202° |
| 2026-04-29 19:43 | 43.58038 | 3.95950 | 16 ft | 4 kts | 236° |
| 2026-04-29 19:44 | 43.58043 | 3.95971 | 17 ft | 0 kts | 296° |
| 2026-04-29 19:49 | 43.58043 | 3.95970 | 15 ft | 1 kts | 296° |
| 2026-04-29 19:50 | 43.58050 | 3.95938 | 15 ft | 6 kts | 285° |
| 2026-04-29 19:50 | 43.58067 | 3.95879 | 18 ft | 8 kts | 302° |
| 2026-04-29 19:50 | 43.58110 | 3.95799 | 15 ft | 12 kts | 308° |
| 2026-04-29 19:50 | 43.58185 | 3.95773 | 17 ft | 12 kts | 28° |
| 2026-04-29 19:51 | 43.58232 | 3.95881 | 14 ft | 15 kts | 77° |
| 2026-04-29 19:51 | 43.58187 | 3.96010 | 14 ft | 17 kts | 125° |
| 2026-04-29 19:51 | 43.58120 | 3.96145 | 15 ft | 17 kts | 124° |
| 2026-04-29 19:51 | 43.58046 | 3.96292 | 15 ft | 21 kts | 125° |
| 2026-04-29 19:52 | 43.57957 | 3.96469 | 14 ft | 23 kts | 124° |
| 2026-04-29 19:52 | 43.57859 | 3.96664 | 13 ft | 26 kts | 124° |
| 2026-04-29 19:52 | 43.57756 | 3.96868 | 11 ft | 26 kts | 124° |
| 2026-04-29 19:52 | 43.57652 | 3.97074 | 17 ft | 25 kts | 124° |
| 2026-04-29 19:53 | 43.57551 | 3.97274 | 18 ft | 25 kts | 125° |
| 2026-04-29 19:53 | 43.57450 | 3.97474 | 18 ft | 26 kts | 125° |
| 2026-04-29 19:53 | 43.57351 | 3.97668 | 17 ft | 25 kts | 125° |
| 2026-04-29 19:53 | 43.57250 | 3.97871 | 14 ft | 26 kts | 124° |
| 2026-04-29 19:54 | 43.57252 | 3.98180 | 17 ft | 14 kts | 31° |
| 2026-04-29 19:54 | 43.57308 | 3.98152 | 16 ft | 0 kts | 305° |
| 2026-04-29 19:54 | 43.57334 | 3.98102 | 16 ft | 32 kts | 306° |
| 2026-04-29 19:55 | 43.57631 | 3.97523 | 20 ft | 110 kts | 304° |
| 2026-04-29 19:55 | 43.58177 | 3.96447 | 147 ft | 156 kts | 307° |
| 2026-04-29 19:55 | 43.58850 | 3.95206 | 757 ft | 165 kts | 315° |
| 2026-04-29 19:55 | 43.59849 | 3.94424 | 1453 ft | 169 kts | 347° |
| 2026-04-29 19:56 | 43.61049 | 3.94445 | 1993 ft | 184 kts | 19° |
| 2026-04-29 19:56 | 43.62154 | 3.95472 | 2364 ft | 205 kts | 54° |
| 2026-04-29 19:56 | 43.63004 | 3.97169 | 2950 ft | 225 kts | 60° |
| 2026-04-29 19:56 | 43.63895 | 3.99075 | 3539 ft | 249 kts | 60° |
| 2026-04-29 19:57 | 43.64885 | 4.01140 | 4320 ft | 263 kts | 60° |
| 2026-04-29 19:57 | 43.65581 | 4.02568 | 5019 ft | 267 kts | 59° |
| 2026-04-29 19:57 | 43.67015 | 4.05396 | 6317 ft | 277 kts | 56° |
| 2026-04-29 19:57 | 43.68174 | 4.07565 | 7235 ft | 284 kts | 55° |
| 2026-04-29 19:58 | 43.69609 | 4.09479 | 8139 ft | 293 kts | 33° |
| 2026-04-29 19:58 | 43.71384 | 4.10911 | 9122 ft | 298 kts | 30° |
| 2026-04-29 19:58 | 43.73200 | 4.12333 | 10084 ft | 302 kts | 29° |
| 2026-04-29 19:58 | 43.75088 | 4.13804 | 10602 ft | 323 kts | 29° |
| 2026-04-29 19:59 | 43.77098 | 4.15371 | 11227 ft | 336 kts | 29° |
| 2026-04-29 19:59 | 43.79152 | 4.16976 | 12094 ft | 341 kts | 29° |
| 2026-04-29 19:59 | 43.81227 | 4.18606 | 12996 ft | 345 kts | 29° |
| 2026-04-29 19:59 | 43.83321 | 4.20259 | 13885 ft | 348 kts | 29° |
| 2026-04-29 20:00 | 43.85439 | 4.21932 | 14651 ft | 352 kts | 29° |
| 2026-04-29 20:00 | 43.87580 | 4.23622 | 15400 ft | 357 kts | 29° |
| 2026-04-29 20:00 | 43.89751 | 4.25336 | 16137 ft | 361 kts | 29° |
| 2026-04-29 20:00 | 43.91946 | 4.27072 | 16865 ft | 366 kts | 29° |
| 2026-04-29 20:01 | 43.94168 | 4.28828 | 17602 ft | 370 kts | 29° |
| 2026-04-29 20:01 | 43.96420 | 4.30610 | 17960 ft | 373 kts | 29° |
| 2026-04-29 20:01 | 43.98660 | 4.32385 | 18048 ft | 365 kts | 29° |
| 2026-04-29 20:01 | 44.00812 | 4.34097 | 18054 ft | 351 kts | 29° |
| 2026-04-29 20:02 | 44.02960 | 4.35805 | 18058 ft | 366 kts | 29° |
| 2026-04-29 20:02 | 44.05250 | 4.37622 | 18059 ft | 389 kts | 29° |
| 2026-04-29 20:02 | 44.07629 | 4.39509 | 18055 ft | 397 kts | 29° |
| 2026-04-29 20:02 | 44.08441 | 4.40155 | 18054 ft | 398 kts | 29° |
| 2026-04-29 20:03 | 44.11626 | 4.42696 | 18050 ft | 399 kts | 29° |
| 2026-04-29 20:03 | 44.14036 | 4.44621 | 18057 ft | 399 kts | 29° |
| 2026-04-29 20:03 | 44.16439 | 4.46542 | 18053 ft | 397 kts | 29° |
| 2026-04-29 20:03 | 44.18833 | 4.48456 | 18055 ft | 397 kts | 29° |
| 2026-04-29 20:04 | 44.21228 | 4.50370 | 18054 ft | 397 kts | 29° |
| 2026-04-29 20:04 | 44.23623 | 4.52289 | 18056 ft | 397 kts | 29° |
| 2026-04-29 20:04 | 44.26014 | 4.54208 | 18054 ft | 397 kts | 29° |
| 2026-04-29 20:04 | 44.28406 | 4.56127 | 18053 ft | 397 kts | 29° |
| 2026-04-29 20:05 | 44.30799 | 4.58047 | 18050 ft | 397 kts | 29° |
| 2026-04-29 20:05 | 44.33192 | 4.59968 | 18046 ft | 397 kts | 29° |
| 2026-04-29 20:05 | 44.35586 | 4.61890 | 18044 ft | 397 kts | 29° |
| 2026-04-29 20:05 | 44.37981 | 4.63817 | 18050 ft | 397 kts | 29° |
| 2026-04-29 20:06 | 44.40375 | 4.65748 | 18048 ft | 397 kts | 29° |
| 2026-04-29 20:06 | 44.42765 | 4.67684 | 18049 ft | 397 kts | 29° |
| 2026-04-29 20:06 | 44.45158 | 4.69622 | 18052 ft | 397 kts | 28° |
| 2026-04-29 20:06 | 44.47693 | 4.71124 | 18044 ft | 396 kts | 13° |
| 2026-04-29 20:07 | 44.50406 | 4.71807 | 18055 ft | 403 kts | 8° |
| 2026-04-29 20:07 | 44.53233 | 4.72430 | 18056 ft | 416 kts | 8° |
| 2026-04-29 20:07 | 44.56103 | 4.73053 | 18054 ft | 419 kts | 8° |
| 2026-04-29 20:07 | 44.58987 | 4.73677 | 18054 ft | 420 kts | 7° |
| 2026-04-29 20:08 | 44.61877 | 4.74301 | 18054 ft | 420 kts | 8° |
| 2026-04-29 20:08 | 44.63789 | 4.74715 | 18057 ft | 420 kts | 8° |
| 2026-04-29 20:08 | 44.67653 | 4.75560 | 18054 ft | 421 kts | 7° |
| 2026-04-29 20:08 | 44.70545 | 4.76197 | 18054 ft | 420 kts | 8° |
| 2026-04-29 20:09 | 44.73433 | 4.76832 | 18057 ft | 420 kts | 7° |
| 2026-04-29 20:09 | 44.76324 | 4.77469 | 18048 ft | 420 kts | 7° |
| 2026-04-29 20:09 | 44.79212 | 4.78106 | 18049 ft | 420 kts | 8° |
| 2026-04-29 20:09 | 44.82097 | 4.78739 | 17923 ft | 419 kts | 8° |
| 2026-04-29 20:10 | 44.84937 | 4.79364 | 17723 ft | 406 kts | 8° |
| 2026-04-29 20:10 | 44.87670 | 4.79967 | 17580 ft | 388 kts | 7° |
| 2026-04-29 20:10 | 44.90257 | 4.80543 | 17434 ft | 366 kts | 8° |
| 2026-04-29 20:10 | 44.92731 | 4.81096 | 17220 ft | 355 kts | 8° |
| 2026-04-29 20:11 | 44.95158 | 4.81636 | 16840 ft | 351 kts | 8° |
| 2026-04-29 20:11 | 44.97558 | 4.82166 | 16428 ft | 348 kts | 8° |
| 2026-04-29 20:11 | 44.99935 | 4.82686 | 15903 ft | 343 kts | 8° |
| 2026-04-29 20:11 | 45.02290 | 4.83202 | 15239 ft | 341 kts | 8° |
| 2026-04-29 20:12 | 45.04620 | 4.83718 | 14601 ft | 338 kts | 8° |
| 2026-04-29 20:12 | 45.06933 | 4.84231 | 13979 ft | 335 kts | 8° |
| 2026-04-29 20:12 | 45.09216 | 4.84739 | 13396 ft | 329 kts | 8° |
| 2026-04-29 20:12 | 45.11443 | 4.85237 | 12994 ft | 318 kts | 8° |
| 2026-04-29 20:13 | 45.13594 | 4.85721 | 12616 ft | 308 kts | 8° |
| 2026-04-29 20:13 | 45.15687 | 4.86192 | 12257 ft | 303 kts | 8° |
| 2026-04-29 20:13 | 45.17769 | 4.86659 | 11877 ft | 303 kts | 8° |
| 2026-04-29 20:13 | 45.19851 | 4.87124 | 11500 ft | 303 kts | 8° |
| 2026-04-29 20:14 | 45.21933 | 4.87586 | 11120 ft | 303 kts | 8° |
| 2026-04-29 20:14 | 45.24014 | 4.88046 | 10735 ft | 303 kts | 8° |
| 2026-04-29 20:14 | 45.26098 | 4.88515 | 10348 ft | 303 kts | 10° |
| 2026-04-29 20:14 | 45.28079 | 4.89397 | 9964 ft | 303 kts | 26° |
| 2026-04-29 20:15 | 45.29853 | 4.91013 | 9643 ft | 298 kts | 40° |
| 2026-04-29 20:15 | 45.31385 | 4.92976 | 9147 ft | 295 kts | 43° |
| 2026-04-29 20:15 | 45.32895 | 4.94945 | 8725 ft | 294 kts | 43° |
| 2026-04-29 20:15 | 45.34397 | 4.96910 | 8384 ft | 291 kts | 44° |
| 2026-04-29 20:16 | 45.35850 | 4.98825 | 8103 ft | 287 kts | 44° |
| 2026-04-29 20:16 | 45.37330 | 5.00775 | 7771 ft | 286 kts | 44° |
| 2026-04-29 20:16 | 45.38774 | 5.02669 | 7320 ft | 287 kts | 44° |
| 2026-04-29 20:16 | 45.40234 | 5.04575 | 6826 ft | 283 kts | 43° |
| 2026-04-29 20:17 | 45.41683 | 5.06503 | 6242 ft | 280 kts | 44° |
| 2026-04-29 20:17 | 45.43096 | 5.08393 | 5738 ft | 276 kts | 44° |
| 2026-04-29 20:17 | 45.44480 | 5.10245 | 5436 ft | 271 kts | 44° |
| 2026-04-29 20:17 | 45.45900 | 5.11903 | 5176 ft | 264 kts | 30° |
| 2026-04-29 20:18 | 45.47615 | 5.12736 | 5038 ft | 253 kts | 7° |
| 2026-04-29 20:18 | 45.49319 | 5.12588 | 4998 ft | 239 kts | 349° |
| 2026-04-29 20:18 | 45.50912 | 5.12089 | 4736 ft | 236 kts | 349° |
| 2026-04-29 20:19 | 45.54017 | 5.11539 | 4138 ft | 233 kts | 356° |
| 2026-04-29 20:19 | 45.55626 | 5.11351 | 3831 ft | 231 kts | 356° |
| 2026-04-29 20:19 | 45.57230 | 5.11159 | 3524 ft | 230 kts | 356° |
| 2026-04-29 20:19 | 45.58779 | 5.10971 | 3234 ft | 216 kts | 357° |
| 2026-04-29 20:20 | 45.60233 | 5.10795 | 2960 ft | 203 kts | 357° |
| 2026-04-29 20:20 | 45.61585 | 5.10631 | 2689 ft | 188 kts | 357° |
| 2026-04-29 20:20 | 45.62838 | 5.10479 | 2457 ft | 173 kts | 358° |
| 2026-04-29 20:20 | 45.63983 | 5.10339 | 2256 ft | 155 kts | 358° |
| 2026-04-29 20:21 | 45.65006 | 5.10212 | 2036 ft | 142 kts | 357° |
| 2026-04-29 20:21 | 45.65965 | 5.10098 | 1824 ft | 136 kts | 357° |
| 2026-04-29 20:21 | 45.66904 | 5.09986 | 1663 ft | 135 kts | 357° |
| 2026-04-29 20:21 | 45.67836 | 5.09869 | 1464 ft | 134 kts | 356° |
| 2026-04-29 20:22 | 45.68758 | 5.09756 | 1325 ft | 133 kts | 356° |
| 2026-04-29 20:22 | 45.69671 | 5.09644 | 1155 ft | 131 kts | 356° |
| 2026-04-29 20:22 | 45.70575 | 5.09541 | 972 ft | 130 kts | 355° |
| 2026-04-29 20:22 | 45.71472 | 5.09431 | 835 ft | 124 kts | 357° |
| 2026-04-29 20:23 | 45.72198 | 5.09346 | 814 ft | 81 kts | 355° |
| 2026-04-29 20:23 | 45.72592 | 5.09299 | 810 ft | 35 kts | 353° |
| 2026-04-29 20:23 | 45.72814 | 5.09208 | 802 ft | 34 kts | 335° |
| 2026-04-29 20:23 | 45.72962 | 5.09060 | 795 ft | 14 kts | 301° |
| 2026-04-29 20:24 | 45.72964 | 5.08904 | 792 ft | 18 kts | 266° |
| 2026-04-29 20:24 | 45.72955 | 5.08718 | 792 ft | 20 kts | 266° |
| 2026-04-29 20:24 | 45.72944 | 5.08525 | 791 ft | 18 kts | 264° |
| 2026-04-29 20:24 | 45.72939 | 5.08461 | 790 ft | 6 kts | 263° |
| 2026-04-29 20:25 | 45.72918 | 5.08396 | 790 ft | 8 kts | 230° |
| 2026-04-29 20:25 | 45.72863 | 5.08355 | 790 ft | 10 kts | 192° |
| 2026-04-29 20:25 | 45.72792 | 5.08359 | 791 ft | 11 kts | 175° |
| 2026-04-29 20:25 | 45.72710 | 5.08369 | 791 ft | 13 kts | 175° |
| 2026-04-29 20:26 | 45.72617 | 5.08380 | 793 ft | 13 kts | 175° |
| 2026-04-29 20:26 | 45.72527 | 5.08392 | 796 ft | 14 kts | 174° |
| 2026-04-29 20:26 | 45.72427 | 5.08405 | 797 ft | 15 kts | 175° |
| 2026-04-29 20:26 | 45.72323 | 5.08418 | 799 ft | 7 kts | 174° |
| 2026-04-29 20:27 | 45.72277 | 5.08401 | 799 ft | 9 kts | 220° |
| 2026-04-29 20:27 | 45.72258 | 5.08345 | 799 ft | 10 kts | 238° |
| 2026-04-29 20:27 | 45.72157 | 5.08312 | 798 ft | 12 kts | 189° |
| 2026-04-29 20:27 | 45.72146 | 5.08258 | 797 ft | 5 kts | 277° |
| 2026-04-29 20:28 | 45.72144 | 5.08200 | 797 ft | 3 kts | 270° |
| 2026-04-29 20:28 | 45.72144 | 5.08175 | 797 ft | 0 kts | 271° |